Time;durP1;ratioP1;P1;durP2;ratioP2;P2;SDS_P1;SDS_P2;PMS_P1;PMS_P2;Temp;Humidity;BMP_temperature;BMP_pressure;BME280_temperature;BME280_humidity;BME280_pressure;Samples;Min_cycle;Max_cycle;Signal;HPM_P1;HPM_P2
2022/11/13 00:01:17;;;;;;;16.50;7.97;;;3.30;99.90;;;;;;5046322;28;20033;-67
2022/11/13 00:03:42;;;;;;;16.73;7.63;;;3.30;99.90;;;;;;5045593;28;20090;-67
2022/11/13 00:06:09;;;;;;;16.88;7.80;;;3.40;99.90;;;;;;5036888;28;20044;-68
2022/11/13 00:08:35;;;;;;;16.00;7.30;;;3.40;99.90;;;;;;5045697;28;20037;-73
2022/11/13 00:11:20;;;;;;;15.05;7.40;;;3.40;99.90;;;;;;5037314;28;20032;-68
2022/11/13 00:13:47;;;;;;;18.13;8.05;;;3.40;99.90;;;;;;5044627;28;20147;-69
2022/11/13 00:16:15;;;;;;;15.68;7.43;;;3.40;99.90;;;;;;5022248;28;20447;-66
2022/11/13 00:18:41;;;;;;;15.88;7.57;;;3.40;99.90;;;;;;5038578;28;20482;-67
2022/11/13 00:21:12;;;;;;;19.83;7.75;;;3.50;99.90;;;;;;5032471;28;20059;-67
2022/11/13 00:23:38;;;;;;;16.05;7.40;;;3.50;99.90;;;;;;5033363;28;21032;-70
2022/11/13 00:26:09;;;;;;;14.73;7.63;;;3.50;99.90;;;;;;5035888;28;20036;-66
2022/11/13 00:28:35;;;;;;;16.98;8.38;;;3.60;99.90;;;;;;5027864;28;20072;-75
2022/11/13 00:31:03;;;;;;;18.48;8.43;;;3.60;99.90;;;;;;5047555;28;20167;-67
2022/11/13 00:33:28;;;;;;;14.05;6.97;;;3.60;99.90;;;;;;5038705;28;20028;-69
2022/11/13 00:36:04;;;;;;;19.10;8.00;;;3.60;99.90;;;;;;5029456;28;20627;-66
2022/11/13 00:38:30;;;;;;;18.40;7.88;;;3.60;99.90;;;;;;5043843;28;20032;-68
2022/11/13 00:40:56;;;;;;;16.65;8.00;;;3.60;99.90;;;;;;5043744;28;20037;-71
2022/11/13 00:43:22;;;;;;;14.60;7.43;;;3.60;99.90;;;;;;5027069;28;20033;-70
2022/11/13 00:45:47;;;;;;;15.73;7.75;;;3.60;99.90;;;;;;5033665;28;20358;-69
2022/11/13 00:48:13;;;;;;;15.38;7.70;;;3.60;99.90;;;;;;5037563;28;20041;-66
2022/11/13 00:50:39;;;;;;;14.27;7.13;;;3.60;99.90;;;;;;5036385;28;20065;-76
2022/11/13 00:53:04;;;;;;;14.40;7.18;;;3.60;99.90;;;;;;5037666;28;20178;-67
2022/11/13 00:55:30;;;;;;;15.18;6.93;;;3.50;99.90;;;;;;5033816;28;20843;-67
2022/11/13 00:57:55;;;;;;;17.00;7.60;;;3.60;99.90;;;;;;5029152;28;20509;-67
2022/11/13 01:00:21;;;;;;;15.65;7.68;;;3.60;99.90;;;;;;5033800;28;20036;-68
2022/11/13 01:02:47;;;;;;;20.90;7.88;;;3.60;99.90;;;;;;5032134;28;20108;-68
2022/11/13 01:05:12;;;;;;;14.05;7.10;;;3.50;99.90;;;;;;5046150;28;20083;-68
2022/11/13 01:07:38;;;;;;;15.10;7.15;;;3.40;99.90;;;;;;5034867;28;20393;-73
2022/11/13 01:10:05;;;;;;;14.70;6.70;;;3.40;99.90;;;;;;5048385;28;20491;-65
2022/11/13 01:12:30;;;;;;;17.27;7.97;;;3.30;99.90;;;;;;5038808;28;20372;-67
2022/11/13 01:14:56;;;;;;;15.63;7.55;;;3.30;99.90;;;;;;5027851;28;20034;-70
2022/11/13 01:17:22;;;;;;;17.20;7.72;;;3.30;99.90;;;;;;5028143;28;20104;-72
2022/11/13 01:19:47;;;;;;;16.10;7.38;;;3.40;99.90;;;;;;5044190;28;20534;-67
2022/11/13 01:22:13;;;;;;;19.13;7.80;;;3.40;99.90;;;;;;5034065;28;20056;-68
2022/11/13 01:24:39;;;;;;;18.55;8.05;;;3.40;99.90;;;;;;5028563;28;20433;-75
2022/11/13 01:27:05;;;;;;;16.98;7.45;;;3.40;99.90;;;;;;5030916;28;20045;-68
2022/11/13 01:29:32;;;;;;;16.52;7.50;;;3.30;99.90;;;;;;5036771;28;20379;-67
2022/11/13 01:31:59;;;;;;;18.45;7.32;;;3.40;99.90;;;;;;5026799;28;20065;-67
2022/11/13 01:34:25;;;;;;;14.70;7.20;;;3.40;99.90;;;;;;5030053;28;20106;-68
2022/11/13 01:36:50;;;;;;;14.68;7.43;;;3.40;99.90;;;;;;5026923;28;20116;-67
2022/11/13 01:39:16;;;;;;;14.43;7.22;;;3.30;99.90;;;;;;5029230;28;20482;-70
2022/11/13 01:41:42;;;;;;;14.30;7.15;;;3.40;99.90;;;;;;5028258;28;20439;-75
2022/11/13 01:44:13;;;;;;;13.98;7.05;;;3.40;99.90;;;;;;5028718;28;20032;-68
2022/11/13 01:46:52;;;;;;;15.18;6.78;;;3.50;99.90;;;;;;5020030;28;20398;-76
2022/11/13 01:49:30;;;;;;;17.45;6.97;;;3.60;99.90;;;;;;5036190;28;20038;-67
2022/11/13 01:52:03;;;;;;;15.05;7.03;;;3.60;99.90;;;;;;5026462;28;20057;-69
2022/11/13 01:54:33;;;;;;;13.77;6.60;;;3.70;99.90;;;;;;5026992;28;20371;-69
2022/11/13 01:57:01;;;;;;;;;;;3.80;99.90;;;;;;5028533;28;20025;-67
2022/11/13 01:59:33;;;;;;;12.38;5.65;;;3.80;99.90;;;;;;5029542;28;20742;-67
2022/11/13 02:01:59;;;;;;;12.85;6.20;;;3.80;99.90;;;;;;5025687;28;20897;-71
2022/11/13 02:04:26;;;;;;;15.68;6.53;;;3.70;99.90;;;;;;5030731;28;20074;-68
2022/11/13 02:06:58;;;;;;;16.25;7.75;;;3.60;99.90;;;;;;5026336;28;20029;-72
2022/11/13 02:09:38;;;;;;;14.85;6.93;;;3.60;99.90;;;;;;5030287;28;20029;-68
2022/11/13 02:12:07;;;;;;;16.40;7.85;;;3.40;99.90;;;;;;5033315;28;20032;-67
2022/11/13 02:14:35;;;;;;;14.90;7.43;;;3.20;99.90;;;;;;5028870;28;20029;-67
2022/11/13 02:17:05;;;;;;;13.15;6.53;;;3.00;99.90;;;;;;5025803;28;20037;-67
2022/11/13 02:19:34;;;;;;;;;;;2.80;99.90;;;;;;5027163;28;20038;-68
2022/11/13 02:22:09;;;;;;;16.20;7.40;;;2.70;99.90;;;;;;5026441;28;20040;-68
2022/11/13 02:24:44;;;;;;;14.27;7.05;;;2.70;99.90;;;;;;5027921;28;20033;-68
2022/11/13 02:27:29;;;;;;;14.50;7.10;;;2.60;99.90;;;;;;5033200;28;20046;-68
2022/11/13 02:29:54;;;;;;;15.63;7.07;;;2.70;99.90;;;;;;5034322;28;20512;-68
2022/11/13 02:32:20;;;;;;;14.63;7.28;;;2.70;99.90;;;;;;5028427;28;20033;-67
2022/11/13 02:34:46;;;;;;;18.48;7.97;;;2.60;99.90;;;;;;5025016;28;20048;-69
2022/11/13 02:37:12;;;;;;;16.73;7.88;;;2.60;99.90;;;;;;5024553;28;20041;-66
2022/11/13 02:39:37;;;;;;;16.25;7.45;;;2.60;99.90;;;;;;5034622;28;20044;-68
2022/11/13 02:42:03;;;;;;;15.02;7.00;;;2.60;99.90;;;;;;5025234;28;20056;-67
2022/11/13 02:44:29;;;;;;;18.77;7.80;;;2.60;99.90;;;;;;5030760;28;20037;-67
2022/11/13 02:46:54;;;;;;;18.10;8.48;;;2.60;99.90;;;;;;5024431;28;20417;-67
2022/11/13 02:49:20;;;;;;;18.88;7.75;;;2.70;99.90;;;;;;5029794;28;20048;-70
2022/11/13 02:51:46;;;;;;;15.70;7.35;;;2.60;99.90;;;;;;5029121;28;20021;-73
2022/11/13 02:54:11;;;;;;;16.23;7.25;;;2.50;99.90;;;;;;5027683;28;20819;-67
2022/11/13 02:56:37;;;;;;;15.98;7.45;;;2.50;99.90;;;;;;5031255;28;20039;-69
2022/11/13 02:59:02;;;;;;;18.25;7.70;;;2.60;99.90;;;;;;5030833;28;20166;-67
2022/11/13 03:01:28;;;;;;;15.80;7.05;;;2.50;99.90;;;;;;5032032;28;20021;-67
2022/11/13 03:03:54;;;;;;;17.35;7.90;;;2.50;99.90;;;;;;5030907;28;20037;-67
2022/11/13 03:06:19;;;;;;;16.17;7.88;;;2.70;99.90;;;;;;5021970;28;20091;-66
2022/11/13 03:08:45;;;;;;;17.23;7.75;;;2.70;99.90;;;;;;5029137;28;20034;-76
2022/11/13 03:11:11;;;;;;;17.90;8.00;;;2.90;99.90;;;;;;5024912;28;20091;-68
2022/11/13 03:13:37;;;;;;;16.85;7.72;;;3.00;99.90;;;;;;5034002;28;20147;-68
2022/11/13 03:16:15;;;;;;;16.98;7.20;;;3.20;99.90;;;;;;5028564;28;20481;-66
2022/11/13 03:18:43;;;;;;;15.93;7.30;;;3.30;99.90;;;;;;5031280;28;20033;-68
2022/11/13 03:21:11;;;;;;;16.25;7.88;;;3.30;99.90;;;;;;5026143;28;20033;-67
2022/11/13 03:23:39;;;;;;;14.23;7.13;;;3.40;99.90;;;;;;5034297;28;20141;-73
2022/11/13 03:26:10;;;;;;;16.15;7.13;;;3.40;99.90;;;;;;5014672;28;20025;-67
2022/11/13 03:28:36;;;;;;;17.90;8.27;;;3.60;99.90;;;;;;5030940;28;20962;-68
2022/11/13 03:31:03;;;;;;;17.17;7.60;;;3.60;99.90;;;;;;5029877;28;20060;-68
2022/11/13 03:33:29;;;;;;;18.52;7.45;;;3.70;99.90;;;;;;5033131;28;20029;-67
2022/11/13 03:35:55;;;;;;;16.38;7.57;;;3.70;99.90;;;;;;5022238;28;20160;-68
2022/11/13 03:38:21;;;;;;;18.42;7.97;;;3.70;99.90;;;;;;5030138;28;20086;-69
2022/11/13 03:40:46;;;;;;;15.95;7.35;;;3.80;99.90;;;;;;5037507;28;20489;-74
2022/11/13 03:43:12;;;;;;;17.20;7.20;;;3.70;99.90;;;;;;5031443;28;20041;-70
2022/11/13 03:45:38;;;;;;;16.85;7.25;;;3.70;99.90;;;;;;5023074;28;20029;-67
2022/11/13 03:48:04;;;;;;;16.63;7.38;;;3.70;99.90;;;;;;5029973;28;20041;-68
2022/11/13 03:50:29;;;;;;;16.92;7.45;;;3.80;99.90;;;;;;5030007;28;20096;-67
2022/11/13 03:52:55;;;;;;;17.70;7.35;;;3.80;99.90;;;;;;5035634;28;20460;-66
2022/11/13 03:55:21;;;;;;;16.70;7.13;;;3.70;99.90;;;;;;5030708;28;20033;-67
2022/11/13 03:57:47;;;;;;;17.60;7.25;;;3.60;99.90;;;;;;5027752;28;20041;-76
2022/11/13 04:00:13;;;;;;;16.95;7.03;;;3.50;99.90;;;;;;5030372;28;20060;-68
2022/11/13 04:02:39;;;;;;;14.88;6.88;;;3.30;99.90;;;;;;5038988;28;20112;-68
2022/11/13 04:05:07;;;;;;;15.32;7.57;;;3.30;99.90;;;;;;5030318;28;20116;-67
2022/11/13 04:07:33;;;;;;;17.13;7.38;;;3.20;99.90;;;;;;5028928;28;20029;-67
2022/11/13 04:09:58;;;;;;;17.73;7.45;;;3.30;99.90;;;;;;5026837;28;20037;-69
2022/11/13 04:12:24;;;;;;;16.27;7.00;;;3.30;99.90;;;;;;5032949;28;20051;-66
2022/11/13 04:14:50;;;;;;;15.10;6.45;;;3.50;99.90;;;;;;5030534;28;20421;-76
2022/11/13 04:17:15;;;;;;;16.58;7.00;;;3.60;99.90;;;;;;5029770;28;20112;-67
2022/11/13 04:19:41;;;;;;;17.52;7.00;;;3.70;99.90;;;;;;5032338;28;20108;-67
2022/11/13 04:22:06;;;;;;;16.27;6.82;;;3.80;99.90;;;;;;5029083;28;20057;-68
2022/11/13 04:24:32;;;;;;;14.70;6.78;;;4.10;99.90;;;;;;5035225;28;20164;-69
2022/11/13 04:26:58;;;;;;;13.73;6.32;;;4.20;99.90;;;;;;5028337;28;20045;-73
2022/11/13 04:29:23;;;;;;;16.17;6.57;;;4.40;99.90;;;;;;5036387;28;20060;-67
2022/11/13 04:31:49;;;;;;;15.65;6.40;;;4.50;99.90;;;;;;5032604;28;20029;-75
2022/11/13 04:34:15;;;;;;;14.85;6.80;;;4.60;99.90;;;;;;5031414;28;20033;-67
2022/11/13 04:36:40;;;;;;;13.27;6.07;;;4.60;99.90;;;;;;5027897;28;20033;-67
2022/11/13 04:39:07;;;;;;;14.73;6.53;;;4.60;99.90;;;;;;5033789;28;20029;-67
2022/11/13 04:44:17;;;;;;;13.55;6.13;;;4.60;99.90;;;;;;5028699;28;20036;-66
2022/11/13 04:46:42;;;;;;;14.07;6.30;;;4.60;99.90;;;;;;5031606;28;20025;-68
2022/11/13 04:49:08;;;;;;;14.95;6.45;;;4.60;99.90;;;;;;5013993;28;20873;-68
2022/11/13 04:51:34;;;;;;;12.73;6.45;;;4.60;99.90;;;;;;5034543;28;20029;-67
2022/11/13 04:53:59;;;;;;;14.73;6.57;;;4.60;99.90;;;;;;5023387;28;20041;-67
2022/11/13 04:56:25;;;;;;;13.68;6.43;;;4.60;99.90;;;;;;5027278;28;20750;-66
2022/11/13 04:58:50;;;;;;;16.15;6.97;;;4.60;99.90;;;;;;5028176;28;20482;-75
2022/11/13 05:01:16;;;;;;;20.30;6.60;;;4.70;99.90;;;;;;5024792;28;20037;-70
2022/11/13 05:03:42;;;;;;;15.60;6.13;;;4.70;99.90;;;;;;5032820;28;20474;-66
2022/11/13 05:06:09;;;;;;;15.82;6.35;;;4.70;99.90;;;;;;5033006;28;20037;-67
2022/11/13 05:08:35;;;;;;;19.92;7.03;;;4.60;99.90;;;;;;5030596;28;20069;-67
2022/11/13 05:11:01;;;;;;;15.73;7.40;;;4.30;99.90;;;;;;5032252;28;20099;-67
2022/11/13 05:13:33;;;;;;;17.10;7.05;;;4.00;99.90;;;;;;5028909;28;20068;-67
2022/11/13 05:16:08;;;;;;;16.55;6.85;;;3.90;99.90;;;;;;5024396;28;20045;-66
2022/11/13 05:18:36;;;;;;;15.57;6.30;;;4.10;99.90;;;;;;5023988;28;20033;-70
2022/11/13 05:21:02;;;;;;;13.32;6.35;;;4.40;99.90;;;;;;5032391;28;20060;-67
2022/11/13 05:23:28;;;;;;;13.35;6.15;;;4.70;99.90;;;;;;5029721;28;20131;-66
2022/11/13 05:26:04;;;;;;;14.70;6.15;;;4.90;99.90;;;;;;5028480;28;20033;-77
2022/11/13 05:28:30;;;;;;;11.52;5.47;;;5.10;99.90;;;;;;5026441;28;20056;-67
2022/11/13 05:31:14;;;;;;;10.98;5.32;;;5.20;99.90;;;;;;5027268;28;20628;-68
2022/11/13 05:33:41;;;;;;;13.20;5.88;;;5.20;99.90;;;;;;5020630;28;20025;-67
2022/11/13 05:36:17;;;;;;;15.45;5.80;;;5.30;99.90;;;;;;5027547;28;20037;-66
2022/11/13 05:38:43;;;;;;;12.35;5.75;;;5.40;99.90;;;;;;5022364;28;20033;-65
2022/11/13 05:41:11;;;;;;;16.42;6.43;;;5.40;99.90;;;;;;5033234;28;20493;-67
2022/11/13 05:43:38;;;;;;;17.33;6.25;;;5.50;99.90;;;;;;5035217;28;20490;-68
2022/11/13 05:46:09;;;;;;;14.85;5.93;;;5.50;99.90;;;;;;5028341;28;20108;-67
2022/11/13 05:48:36;;;;;;;14.23;6.03;;;5.40;99.90;;;;;;5031616;28;20593;-67
2022/11/13 05:51:07;;;;;;;13.20;6.25;;;5.40;99.90;;;;;;5026752;28;20033;-67
2022/11/13 05:53:34;;;;;;;13.75;6.72;;;5.40;99.90;;;;;;5036784;28;20036;-69
2022/11/13 05:56:05;;;;;;;10.68;5.28;;;5.50;99.90;;;;;;5048485;28;20052;-68
2022/11/13 05:58:31;;;;;;;13.07;6.13;;;5.40;99.90;;;;;;5024898;28;20065;-66
2022/11/13 06:01:16;;;;;;;15.05;6.32;;;5.50;99.90;;;;;;5028686;28;20043;-75
2022/11/13 06:03:43;;;;;;;14.10;5.80;;;5.50;99.90;;;;;;5027094;28;20112;-65
2022/11/13 06:06:11;;;;;;;18.00;6.78;;;5.40;99.90;;;;;;5039839;28;20030;-68
2022/11/13 06:08:37;;;;;;;13.82;5.80;;;5.50;99.90;;;;;;5036164;28;20149;-69
2022/11/13 06:11:06;;;;;;;15.18;6.43;;;5.50;99.90;;;;;;5033554;28;21670;-65
2022/11/13 06:13:32;;;;;;;14.63;5.85;;;5.50;99.90;;;;;;5028656;28;20037;-68
2022/11/13 06:16:23;;;;;;;15.93;6.70;;;5.60;99.90;;;;;;5028351;28;20026;-74
2022/11/13 06:18:49;;;;;;;14.60;6.35;;;5.60;99.90;;;;;;5030227;28;20218;-69
2022/11/13 06:21:20;;;;;;;15.50;6.13;;;5.70;99.90;;;;;;5036914;28;20123;-68
2022/11/13 06:23:46;;;;;;;14.95;6.90;;;5.60;99.90;;;;;;5027034;28;20049;-66
2022/11/13 06:26:17;;;;;;;17.45;6.82;;;5.60;99.90;;;;;;5041233;28;20029;-69
2022/11/13 06:28:43;;;;;;;16.75;6.97;;;5.70;99.90;;;;;;5038496;28;20115;-68
2022/11/13 06:31:12;;;;;;;17.40;6.97;;;5.70;99.90;;;;;;5032213;28;20094;-68
2022/11/13 06:33:39;;;;;;;15.65;6.20;;;5.70;99.90;;;;;;5044650;28;20385;-67
2022/11/13 06:36:06;;;;;;;14.40;6.03;;;5.80;99.90;;;;;;5041054;28;20036;-66
2022/11/13 06:38:33;;;;;;;13.77;6.35;;;5.90;99.90;;;;;;5045599;28;20437;-68
2022/11/13 06:40:59;;;;;;;14.38;6.85;;;5.90;99.90;;;;;;5035731;28;20068;-72
2022/11/13 06:43:25;;;;;;;14.20;6.03;;;6.00;99.90;;;;;;5044291;28;20450;-67
2022/11/13 06:45:51;;;;;;;14.20;6.65;;;6.00;99.90;;;;;;5034977;28;20398;-66
2022/11/13 06:48:17;;;;;;;16.02;6.53;;;6.00;99.90;;;;;;5043273;28;20111;-68
2022/11/13 06:50:42;;;;;;;15.00;6.15;;;6.00;99.90;;;;;;5030441;28;20029;-67
2022/11/13 06:53:08;;;;;;;14.10;6.75;;;5.90;99.90;;;;;;5036716;28;20040;-69
2022/11/13 06:55:34;;;;;;;14.35;6.80;;;5.80;99.90;;;;;;5038216;28;20034;-67
2022/11/13 06:57:59;;;;;;;13.63;6.28;;;5.80;99.90;;;;;;5042840;28;20533;-76
2022/11/13 07:00:25;;;;;;;16.48;6.75;;;5.90;99.90;;;;;;5041928;28;20025;-65
2022/11/13 07:02:51;;;;;;;14.77;6.22;;;5.90;99.90;;;;;;5041831;28;20489;-69
2022/11/13 07:05:16;;;;;;;13.18;6.13;;;6.00;99.90;;;;;;5038441;28;20967;-70
2022/11/13 07:07:42;;;;;;;13.63;7.22;;;6.10;99.90;;;;;;5039328;28;20039;-69
2022/11/13 07:10:09;;;;;;;13.27;6.25;;;6.20;99.90;;;;;;5033743;28;20045;-66
2022/11/13 07:12:34;;;;;;;14.55;6.30;;;6.30;99.90;;;;;;5041824;28;20056;-66
2022/11/13 07:15:02;;;;;;;16.08;5.90;;;6.50;99.90;;;;;;5040955;28;20470;-76
2022/11/13 07:17:28;;;;;;;14.85;6.57;;;6.60;99.90;;;;;;5037909;28;20041;-67
2022/11/13 07:19:54;;;;;;;11.65;5.88;;;6.70;99.90;;;;;;5046148;28;20079;-72
2022/11/13 07:22:19;;;;;;;17.73;6.32;;;6.80;99.90;;;;;;5038923;28;20143;-69
2022/11/13 07:24:45;;;;;;;14.50;6.40;;;6.80;99.90;;;;;;5033674;28;20047;-72
2022/11/13 07:27:11;;;;;;;13.75;6.10;;;6.90;99.90;;;;;;5040084;28;20033;-68
2022/11/13 07:29:37;;;;;;;13.45;5.88;;;6.90;99.90;;;;;;5040703;28;20800;-71
2022/11/13 07:32:04;;;;;;;13.57;6.57;;;6.90;99.90;;;;;;5035964;28;20039;-70
2022/11/13 07:34:29;;;;;;;15.07;6.32;;;6.90;99.90;;;;;;5035390;28;20034;-69
2022/11/13 07:36:55;;;;;;;15.07;5.80;;;6.80;99.90;;;;;;5044692;28;20028;-68
2022/11/13 07:39:21;;;;;;;13.43;5.75;;;6.80;99.90;;;;;;5036675;28;20602;-69
2022/11/13 07:41:47;;;;;;;12.25;5.40;;;6.90;99.90;;;;;;5032541;28;20029;-69
2022/11/13 07:44:12;;;;;;;13.05;5.53;;;7.00;99.90;;;;;;5032975;28;20032;-70
2022/11/13 07:46:38;;;;;;;9.32;4.80;;;7.20;99.90;;;;;;5040389;28;20029;-70
2022/11/13 07:49:04;;;;;;;9.80;4.93;;;7.30;99.90;;;;;;5031554;28;20029;-75
2022/11/13 07:51:30;;;;;;;13.55;5.35;;;7.30;99.90;;;;;;5030783;28;20041;-70
2022/11/13 07:53:58;;;;;;;10.45;5.18;;;7.40;99.90;;;;;;5037790;28;20040;-69
2022/11/13 07:56:24;;;;;;;10.25;5.30;;;7.40;99.90;;;;;;5029431;28;20025;-74
2022/11/13 07:58:50;;;;;;;10.18;5.18;;;7.40;99.90;;;;;;5040061;28;20032;-71
2022/11/13 08:01:16;;;;;;;10.32;4.78;;;7.40;99.90;;;;;;5036635;28;20038;-71
2022/11/13 08:03:41;;;;;;;13.10;5.40;;;7.60;99.90;;;;;;5025018;28;20377;-69
2022/11/13 08:06:07;;;;;;;11.43;5.57;;;7.60;99.90;;;;;;5031656;28;20509;-70
2022/11/13 08:08:33;;;;;;;11.13;4.80;;;7.50;99.90;;;;;;5026876;28;20034;-71
2022/11/13 08:11:06;;;;;;;11.00;4.80;;;7.50;99.90;;;;;;5032648;28;20044;-69
2022/11/13 08:13:33;;;;;;;12.73;5.60;;;7.50;99.90;;;;;;5027081;28;20072;-71
2022/11/13 08:15:59;;;;;;;11.18;4.75;;;7.60;99.90;;;;;;5033353;28;20025;-71
2022/11/13 08:18:27;;;;;;;11.00;4.95;;;7.60;99.90;;;;;;5030820;28;20027;-71
2022/11/13 08:20:53;;;;;;;11.07;5.10;;;7.50;99.90;;;;;;5030123;28;20033;-71
2022/11/13 08:23:19;;;;;;;9.82;5.05;;;7.50;99.90;;;;;;5031884;28;20103;-70
2022/11/13 08:25:45;;;;;;;10.55;5.13;;;7.60;99.90;;;;;;5038539;28;20036;-73
2022/11/13 08:28:11;;;;;;;14.88;5.80;;;7.70;99.90;;;;;;5027366;28;20046;-72
2022/11/13 08:30:37;;;;;;;9.25;5.18;;;7.70;99.90;;;;;;5035247;28;20076;-74
2022/11/13 08:33:02;;;;;;;13.65;5.93;;;7.70;99.90;;;;;;5029339;28;20486;-75
2022/11/13 08:35:29;;;;;;;11.73;5.38;;;7.70;99.90;;;;;;5034786;28;20108;-72
2022/11/13 08:38:03;;;;;;;9.88;5.15;;;7.70;99.90;;;;;;5029832;28;20033;-70
2022/11/13 08:40:29;;;;;;;11.70;5.57;;;7.90;99.90;;;;;;5025010;28;20102;-70
2022/11/13 08:42:59;;;;;;;10.95;4.63;;;8.10;99.90;;;;;;5042656;28;20541;-71
2022/11/13 08:45:25;;;;;;;10.52;5.03;;;8.20;99.90;;;;;;5032288;28;20309;-72
2022/11/13 08:47:50;;;;;;;12.75;5.47;;;8.30;99.90;;;;;;5038361;28;20041;-71
2022/11/13 08:50:16;;;;;;;11.02;4.97;;;8.50;99.90;;;;;;5030646;28;20120;-70
2022/11/13 08:52:41;;;;;;;10.25;4.93;;;8.70;99.90;;;;;;5036818;28;20385;-71
2022/11/13 08:55:07;;;;;;;11.48;5.53;;;8.80;99.90;;;;;;5031750;28;20045;-75
2022/11/13 08:57:33;;;;;;;10.30;5.32;;;8.90;99.90;;;;;;5031402;28;20804;-71
2022/11/13 08:59:58;;;;;;;11.27;5.45;;;8.90;99.90;;;;;;5042740;28;20037;-70
2022/11/13 09:02:24;;;;;;;10.82;5.07;;;8.90;99.90;;;;;;5040532;28;20038;-69
2022/11/13 09:04:50;;;;;;;9.13;4.70;;;8.90;99.90;;;;;;5040933;28;20114;-75
2022/11/13 09:07:15;;;;;;;13.65;6.32;;;9.10;99.90;;;;;;5035080;28;20170;-71
2022/11/13 09:09:41;;;;;;;13.65;6.22;;;9.10;99.90;;;;;;5031517;28;20108;-71
2022/11/13 09:12:07;;;;;;;21.40;8.88;;;9.30;99.90;;;;;;5036254;28;20044;-75
2022/11/13 09:14:33;;;;;;;15.90;7.03;;;9.30;99.90;;;;;;5039612;28;20356;-69
2022/11/13 09:16:58;;;;;;;15.80;6.97;;;9.30;99.90;;;;;;5028856;28;20029;-70
2022/11/13 09:19:24;;;;;;;10.75;5.15;;;9.40;99.90;;;;;;5028290;28;20466;-72
2022/11/13 09:21:51;;;;;;;11.05;5.50;;;9.50;99.90;;;;;;5038946;28;20151;-72
2022/11/13 09:24:17;;;;;;;9.77;4.53;;;9.70;99.90;;;;;;5026260;28;20131;-73
2022/11/13 09:26:42;;;;;;;10.68;3.72;;;9.80;99.90;;;;;;5044906;28;20505;-72
2022/11/13 09:29:09;;;;;;;11.32;3.88;;;10.10;99.90;;;;;;5028764;28;20033;-77
2022/11/13 09:31:37;;;;;;;7.30;3.58;;;10.40;99.90;;;;;;5044235;28;20048;-72
2022/11/13 09:34:03;;;;;;;8.50;3.83;;;10.60;99.90;;;;;;5029014;28;20501;-72
2022/11/13 09:36:28;;;;;;;7.70;3.80;;;10.70;99.90;;;;;;5027650;28;20037;-72
2022/11/13 09:38:54;;;;;;;10.23;4.00;;;10.70;99.90;;;;;;5030129;28;20037;-72
2022/11/13 09:41:27;;;;;;;7.53;3.40;;;10.70;99.90;;;;;;5035391;28;20029;-70
2022/11/13 09:43:57;;;;;;;9.23;3.75;;;10.70;99.90;;;;;;5028052;28;20021;-72
2022/11/13 09:46:50;;;;;;;8.00;3.92;;;10.70;99.90;;;;;;5037335;28;20029;-76
2022/11/13 09:49:27;;;;;;;5.47;2.72;;;10.70;99.90;;;;;;5023693;28;20379;-72
2022/11/13 09:51:56;;;;;;;4.88;3.05;;;10.80;99.90;;;;;;5027566;28;20029;-72
2022/11/13 09:54:22;;;;;;;6.53;3.15;;;10.90;99.90;;;;;;5027907;28;20088;-71
2022/11/13 09:57:13;;;;;;;7.15;2.90;;;11.10;99.90;;;;;;5034867;28;20151;-72
2022/11/13 10:00:09;;;;;;;5.72;2.55;;;11.20;99.90;;;;;;5048490;28;20033;-71
2022/11/13 10:03:11;;;;;;;6.38;2.70;;;11.30;99.90;;;;;;5032561;28;20040;-69
2022/11/13 10:05:51;;;;;;;12.95;5.18;;;11.40;99.90;;;;;;5045124;28;20037;-73
2022/11/13 10:08:28;;;;;;;9.10;3.72;;;11.50;99.90;;;;;;5027658;28;20033;-72
2022/11/13 10:11:03;;;;;;;6.78;2.63;;;11.60;99.90;;;;;;5035977;28;20152;-70
2022/11/13 10:13:59;;;;;;;5.10;2.40;;;11.60;99.90;;;;;;5037551;28;20036;-71
2022/11/13 10:16:44;;;;;;;5.93;3.15;;;11.60;99.90;;;;;;5031729;28;20037;-70
2022/11/13 10:19:31;;;;;;;6.85;2.67;;;11.70;99.90;;;;;;5043696;28;20033;-73
2022/11/13 10:22:28;;;;;;;7.22;2.88;;;11.80;99.90;;;;;;5029983;28;20046;-74
2022/11/13 10:25:10;;;;;;;6.97;2.50;;;11.90;99.90;;;;;;5027761;28;20103;-72
2022/11/13 10:27:37;;;;;;;6.30;2.85;;;11.90;99.90;;;;;;5023293;28;20043;-72
2022/11/13 10:30:05;;;;;;;5.57;2.55;;;11.90;99.90;;;;;;5028459;28;20425;-72
2022/11/13 10:32:32;;;;;;;5.85;2.60;;;12.00;99.90;;;;;;5032351;28;20500;-71
2022/11/13 10:35:15;;;;;;;6.55;2.65;;;12.20;99.90;;;;;;5031540;28;20077;-71
2022/11/13 10:38:02;;;;;;;4.68;2.38;;;12.30;99.90;;;;;;5039581;28;20148;-72
2022/11/13 10:40:31;;;;;;;4.53;2.30;;;12.40;99.90;;;;;;5031630;28;20029;-71
2022/11/13 10:43:16;;;;;;;3.97;2.28;;;12.40;99.90;;;;;;5040046;28;20025;-73
2022/11/13 10:45:56;;;;;;;4.93;2.65;;;12.40;99.90;;;;;;5037539;28;20442;-72
2022/11/13 10:48:26;;;;;;;6.32;2.53;;;12.60;99.90;;;;;;5040474;28;20704;-74
2022/11/13 10:50:57;;;;;;;5.57;2.67;;;12.70;99.90;;;;;;5041227;28;20046;-72
2022/11/13 10:53:25;;;;;;;4.13;1.88;;;12.70;99.90;;;;;;5033763;28;20044;-73
2022/11/13 10:55:55;;;;;;;5.18;2.38;;;12.70;99.90;;;;;;5033963;28;20752;-71
2022/11/13 10:58:21;;;;;;;2.67;1.48;;;12.90;99.90;;;;;;5035396;28;20557;-70
2022/11/13 11:00:48;;;;;;;5.57;2.20;;;13.00;99.90;;;;;;5036125;28;20082;-71
2022/11/13 11:03:14;;;;;;;7.60;2.50;;;13.00;99.90;;;;;;5029575;28;20041;-74
2022/11/13 11:05:57;;;;;;;5.00;2.42;;;13.20;99.90;;;;;;5031859;28;20403;-72
2022/11/13 11:08:29;;;;;;;6.53;2.80;;;13.30;99.90;;;;;;5037076;28;20041;-71
2022/11/13 11:14:25;;;;;;;4.55;2.15;;;13.60;99.90;;;;;;5024360;28;20028;-71
2022/11/13 11:16:52;;;;;;;5.32;2.63;;;13.60;99.90;;;;;;5031106;28;20048;-73
2022/11/13 11:19:23;;;;;;;4.70;2.50;;;13.60;99.90;;;;;;5036654;28;20030;-71
2022/11/13 11:21:54;;;;;;;5.03;2.50;;;13.80;99.90;;;;;;5032288;28;20085;-70
2022/11/13 11:24:30;;;;;;;4.97;2.53;;;13.60;99.90;;;;;;5033597;28;20049;-70
2022/11/13 11:27:12;;;;;;;4.10;2.05;;;13.50;99.90;;;;;;5026810;28;20025;-71
2022/11/13 11:29:46;;;;;;;4.47;2.47;;;13.60;99.90;;;;;;5037333;28;20040;-72
2022/11/13 11:32:39;;;;;;;4.47;2.28;;;13.70;99.90;;;;;;5037813;28;20029;-72
2022/11/13 11:35:21;;;;;;;5.45;2.60;;;13.70;99.90;;;;;;5024183;28;20634;-72
2022/11/13 11:38:09;;;;;;;6.25;2.75;;;13.80;99.90;;;;;;5036308;28;20115;-70
2022/11/13 11:40:37;;;;;;;14.43;4.72;;;13.80;99.90;;;;;;5029601;28;20098;-69
2022/11/13 11:43:17;;;;;;;14.02;5.65;;;14.00;99.90;;;;;;5026789;28;20034;-67
2022/11/13 11:45:44;;;;;;;;;;;14.30;99.90;;;;;;5032144;28;20052;-67
2022/11/13 11:48:16;;;;;;;5.50;2.85;;;14.30;99.90;;;;;;5044860;28;19952;-66
2022/11/13 11:50:53;;;;;;;4.75;2.75;;;14.50;99.90;;;;;;5038277;28;20028;-65
2022/11/13 11:53:44;;;;;;;4.53;2.30;;;14.60;99.90;;;;;;5026514;28;20025;-72
2022/11/13 11:56:28;;;;;;;5.55;2.72;;;14.70;99.90;;;;;;5023723;28;20486;-68
2022/11/13 11:58:56;;;;;;;5.43;2.40;;;15.00;99.90;;;;;;5016654;28;20029;-66
2022/11/13 12:01:54;;;;;;;5.55;2.47;;;15.00;99.90;;;;;;5012396;28;20752;-65
2022/11/13 12:04:32;;;;;;;4.45;2.53;;;15.10;99.90;;;;;;5010921;28;20083;-72
2022/11/13 12:07:29;;;;;;;5.18;2.45;;;15.40;99.90;;;;;;5011666;28;20088;-67
2022/11/13 12:10:14;;;;;;;4.97;2.47;;;15.30;99.90;;;;;;5014545;28;20044;-66
2022/11/13 12:13:01;;;;;;;4.63;2.30;;;15.50;99.90;;;;;;5017297;28;20116;-67
2022/11/13 12:15:37;;;;;;;7.53;2.70;;;16.00;99.90;;;;;;5031155;28;20060;-67
2022/11/13 12:18:12;;;;;;;3.97;2.53;;;16.10;99.30;;;;;;5033129;28;20061;-68
2022/11/13 12:21:19;;;;;;;5.60;2.35;;;16.10;99.90;;;;;;5033228;28;20033;-65
2022/11/13 12:23:48;;;;;;;5.13;2.67;;;15.90;99.10;;;;;;5031480;28;20054;-67
2022/11/13 12:26:19;;;;;;;6.13;2.88;;;15.80;99.70;;;;;;5020743;28;20120;-67
2022/11/13 12:28:57;;;;;;;5.70;3.13;;;15.40;99.90;;;;;;5015356;28;20048;-65
2022/11/13 12:31:56;;;;;;;4.30;2.70;;;15.70;99.90;;;;;;5012770;28;20604;-70
2022/11/13 12:34:45;;;;;;;4.40;2.67;;;16.10;99.90;;;;;;5009884;28;20483;-68
2022/11/13 12:37:17;;;;;;;6.90;2.80;;;16.30;98.90;;;;;;5011758;28;20040;-67
2022/11/13 12:39:46;;;;;;;5.57;2.45;;;16.40;99.10;;;;;;5011240;28;20060;-66
2022/11/13 12:42:47;;;;;;;4.15;2.80;;;16.30;99.40;;;;;;5025500;28;20037;-67
2022/11/13 12:45:20;;;;;;;5.68;2.97;;;16.00;99.30;;;;;;5022473;28;20121;-66
2022/11/13 12:47:50;;;;;;;5.47;2.88;;;15.80;99.30;;;;;;5013088;28;20037;-65
2022/11/13 12:50:26;;;;;;;6.13;3.10;;;15.50;99.70;;;;;;5017063;28;20091;-65
2022/11/13 12:53:04;;;;;;;5.47;3.00;;;15.70;99.90;;;;;;5018648;28;20056;-67
2022/11/13 12:55:33;;;;;;;4.63;2.63;;;16.00;99.90;;;;;;5016680;28;20045;-68
2022/11/13 12:58:23;;;;;;;4.93;2.83;;;15.90;99.40;;;;;;5013451;28;20037;-71
2022/11/13 13:01:16;;;;;;;5.53;3.00;;;16.00;99.90;;;;;;5012502;28;20036;-65
2022/11/13 13:04:00;;;;;;;5.07;3.13;;;16.00;99.60;;;;;;5012480;28;20839;-66
2022/11/13 13:06:51;;;;;;;6.05;2.90;;;15.70;99.90;;;;;;5015310;28;20033;-69
2022/11/13 13:09:21;;;;;;;;;;;15.50;99.90;;;;;;5015089;28;20030;-66